Time;durP1;ratioP1;P1;durP2;ratioP2;P2;SDS_P1;SDS_P2;PMS_P1;PMS_P2;Temp;Humidity;BMP_temperature;BMP_pressure;BME280_temperature;BME280_humidity;BME280_pressure;Samples;Min_cycle;Max_cycle;Signal;HPM_P1;HPM_P2
2022/01/09 00:00:48;;;;;;;;;;;;;;;;;;2101335;28;19924;-48
2022/01/09 00:01:49;;;;;;;;;;;;;;;;;;2114952;28;19920;-49
2022/01/09 00:02:50;;;;;;;;;;;;;;;;;;2111115;28;20392;-48
2022/01/09 00:03:51;;;;;;;;;;;;;;;;;;2106801;28;19981;-49
2022/01/09 00:04:51;;;;;;;;;;;;;;;;;;2098288;28;19955;-47
2022/01/09 00:05:52;;;;;;;;;;;;;;;;;;2098167;28;19924;-48
2022/01/09 00:06:53;;;;;;;;;;;;;;;;;;2108169;28;19950;-49
2022/01/09 00:07:54;;;;;;;;;;;;;;;;;;2115006;28;20322;-52
2022/01/09 00:08:55;;;;;;;;;;;;;;;;;;2111305;28;19926;-48
2022/01/09 00:09:56;;;;;;;;;;;;;;;;;;2111631;28;19920;-49
2022/01/09 00:10:57;;;;;;;;;;;;;;;;;;2114919;28;20361;-48
2022/01/09 00:11:58;;;;;;;;;;;;;;;;;;2109107;28;19920;-48
2022/01/09 00:12:59;;;;;;;;;;;;;;;;;;2105384;28;20366;-49
2022/01/09 00:14:00;;;;;;;;;;;;;;;;;;2106550;28;19919;-49
2022/01/09 00:15:01;;;;;;;;;;;;;;;;;;2104429;28;19928;-49
2022/01/09 00:16:02;;;;;;;;;;;;;;;;;;2106429;28;19919;-48
2022/01/09 00:17:02;;;;;;;;;;;;;;;;;;2106455;28;20411;-49
2022/01/09 00:18:03;;;;;;;;;;;;;;;;;;2106466;28;19927;-48
2022/01/09 00:19:04;;;;;;;;;;;;;;;;;;2114819;28;19930;-49
2022/01/09 00:20:05;;;;;;;;;;;;;;;;;;2114261;28;19920;-47
2022/01/09 00:21:06;;;;;;;;;;;;;;;;;;2106189;28;19924;-48
2022/01/09 00:22:06;;;;;;;;;;;;;;;;;;2098176;28;19920;-48
2022/01/09 00:23:07;;;;;;;;;;;;;;;;;;2098009;28;19920;-49
2022/01/09 00:24:08;;;;;;;;;;;;;;;;;;2101244;28;19927;-50
2022/01/09 00:25:09;;;;;;;;;;;;;;;;;;2098175;28;19920;-48
2022/01/09 00:26:11;;;;;;;;;;;;;;;;;;2099555;28;19920;-48
2022/01/09 00:27:11;;;;;;;;;;;;;;;;;;2113149;28;20014;-49
2022/01/09 00:28:12;;;;;;;;;;;;;;;;;;2114961;28;20295;-48
2022/01/09 00:29:13;;;;;;;;;;;;;;;;;;2108295;28;19920;-49
2022/01/09 00:30:14;;;;;;;;;;;;;;;;;;2106202;28;19920;-48
2022/01/09 00:31:15;;;;;;;;;;;;;;;;;;2106398;28;19950;-49
2022/01/09 00:32:15;;;;;;;;;;;;;;;;;;2105115;28;19920;-48
2022/01/09 00:33:20;;;;;;;;;;;;;;;;;;2106398;28;19920;-48
2022/01/09 00:34:21;;;;;;;;;;;;;;;;;;2104754;28;19963;-48
2022/01/09 00:35:22;;;;;;;;;;;;;;;;;;2101719;28;19931;-49
2022/01/09 00:36:23;;;;;;;;;;;;;;;;;;2097894;28;19924;-49
2022/01/09 00:37:24;;;;;;;;;;;;;;;;;;2099795;28;19920;-48
2022/01/09 00:38:24;;;;;;;;;;;;;;;;;;2105469;28;19920;-50
2022/01/09 00:39:25;;;;;;;;;;;;;;;;;;2106486;28;19998;-49
2022/01/09 00:40:26;;;;;;;;;;;;;;;;;;2104338;28;20297;-48
2022/01/09 00:41:27;;;;;;;;;;;;;;;;;;2104212;28;20393;-48
2022/01/09 00:42:28;;;;;;;;;;;;;;;;;;2106439;28;19927;-49
2022/01/09 00:43:30;;;;;;;;;;;;;;;;;;2103786;28;20082;-48
2022/01/09 00:44:31;;;;;;;;;;;;;;;;;;2114868;28;19923;-49
2022/01/09 00:45:32;;;;;;;;;;;;;;;;;;2114797;28;19923;-49
2022/01/09 00:46:33;;;;;;;;;;;;;;;;;;2106705;28;19942;-48
2022/01/09 00:47:34;;;;;;;;;;;;;;;;;;2114713;28;19926;-49
2022/01/09 00:48:35;;;;;;;;;;;;;;;;;;2111099;28;19919;-47
2022/01/09 00:49:36;;;;;;;;;;;;;;;;;;2110085;28;20296;-48
2022/01/09 00:50:38;;;;;;;;;;;;;;;;;;2114566;28;20050;-49
2022/01/09 00:51:39;;;;;;;;;;;;;;;;;;2108851;28;19921;-52
2022/01/09 00:52:40;;;;;;;;;;;;;;;;;;2112337;28;19926;-48
2022/01/09 00:53:40;;;;;;;;;;;;;;;;;;2114700;28;19919;-48
2022/01/09 00:54:41;;;;;;;;;;;;;;;;;;2106422;28;19943;-48
2022/01/09 00:55:42;;;;;;;;;;;;;;;;;;2114722;28;19958;-48
2022/01/09 00:56:43;;;;;;;;;;;;;;;;;;2114511;28;20298;-48
2022/01/09 00:57:44;;;;;;;;;;;;;;;;;;2106279;28;19920;-48
2022/01/09 00:58:45;;;;;;;;;;;;;;;;;;2113581;28;19920;-50
2022/01/09 00:59:46;;;;;;;;;;;;;;;;;;2105681;28;19932;-48
2022/01/09 01:00:47;;;;;;;;;;;;;;;;;;2108541;28;19926;-48
2022/01/09 01:01:47;;;;;;;;;;;;;;;;;;2114559;28;19953;-48
2022/01/09 01:02:48;;;;;;;;;;;;;;;;;;2111933;28;19919;-47
2022/01/09 01:03:49;;;;;;;;;;;;;;;;;;2111556;28;19927;-48
2022/01/09 01:04:51;;;;;;;;;;;;;;;;;;2114757;28;20018;-50
2022/01/09 01:05:52;;;;;;;;;;;;;;;;;;2112220;28;20007;-47
2022/01/09 01:06:53;;;;;;;;;;;;;;;;;;2106526;28;20388;-48
2022/01/09 01:07:54;;;;;;;;;;;;;;;;;;2106163;28;19943;-48
2022/01/09 01:08:56;;;;;;;;;;;;;;;;;;2103834;28;19924;-49
2022/01/09 01:09:57;;;;;;;;;;;;;;;;;;2097665;28;19974;-48
2022/01/09 01:10:58;;;;;;;;;;;;;;;;;;2097808;28;20401;-48
2022/01/09 01:11:59;;;;;;;;;;;;;;;;;;2107633;28;19924;-45
2022/01/09 01:12:59;;;;;;;;;;;;;;;;;;2114558;28;20404;-45
2022/01/09 01:14:00;;;;;;;;;;;;;;;;;;2113206;28;19988;-46
2022/01/09 01:15:01;;;;;;;;;;;;;;;;;;2109166;28;19920;-46
2022/01/09 01:16:02;;;;;;;;;;;;;;;;;;2114503;28;19959;-45
2022/01/09 01:17:02;;;;;;;;;;;;;;;;;;2109663;28;20399;-46
2022/01/09 01:18:03;;;;;;;;;;;;;;;;;;2100402;28;19920;-45
2022/01/09 01:19:06;;;;;;;;;;;;;;;;;;2097732;28;19931;-45
2022/01/09 01:20:06;;;;;;;;;;;;;;;;;;2100105;28;20010;-45
2022/01/09 01:21:07;;;;;;;;;;;;;;;;;;2098691;28;19921;-46
2022/01/09 01:22:08;;;;;;;;;;;;;;;;;;2097714;28;19986;-45
2022/01/09 01:23:09;;;;;;;;;;;;;;;;;;2105750;28;19935;-45
2022/01/09 01:24:10;;;;;;;;;;;;;;;;;;2097714;28;20285;-47
2022/01/09 01:25:11;;;;;;;;;;;;;;;;;;2097901;28;20194;-45
2022/01/09 01:26:12;;;;;;;;;;;;;;;;;;2107028;28;19926;-45
2022/01/09 01:27:12;;;;;;;;;;;;;;;;;;2114593;28;19924;-45
2022/01/09 01:28:13;;;;;;;;;;;;;;;;;;2112403;28;19919;-45
2022/01/09 01:29:14;;;;;;;;;;;;;;;;;;2109543;28;20288;-46
2022/01/09 01:30:15;;;;;;;;;;;;;;;;;;2114410;28;20384;-46
2022/01/09 01:31:16;;;;;;;;;;;;;;;;;;2110471;28;19920;-45
2022/01/09 01:32:16;;;;;;;;;;;;;;;;;;2112985;28;19919;-45
2022/01/09 01:33:17;;;;;;;;;;;;;;;;;;2114481;28;19947;-45
2022/01/09 01:34:18;;;;;;;;;;;;;;;;;;2110556;28;20265;-45
2022/01/09 01:35:19;;;;;;;;;;;;;;;;;;2098440;28;19924;-44
2022/01/09 01:36:20;;;;;;;;;;;;;;;;;;2097763;28;19926;-46
2022/01/09 01:37:21;;;;;;;;;;;;;;;;;;2102900;28;19924;-45
2022/01/09 01:38:21;;;;;;;;;;;;;;;;;;2106212;28;19920;-45
2022/01/09 01:39:22;;;;;;;;;;;;;;;;;;2106049;28;20324;-45
2022/01/09 01:40:23;;;;;;;;;;;;;;;;;;2105909;28;20300;-45
2022/01/09 01:41:24;;;;;;;;;;;;;;;;;;2106080;28;19920;-45
2022/01/09 01:42:25;;;;;;;;;;;;;;;;;;2105572;28;20317;-45
2022/01/09 01:43:26;;;;;;;;;;;;;;;;;;2104261;28;20365;-45
2022/01/09 01:44:27;;;;;;;;;;;;;;;;;;2097693;28;19924;-45
2022/01/09 01:45:28;;;;;;;;;;;;;;;;;;2100271;28;19920;-46
2022/01/09 01:46:28;;;;;;;;;;;;;;;;;;2111651;28;19920;-46
2022/01/09 01:47:29;;;;;;;;;;;;;;;;;;2114503;28;19920;-45
2022/01/09 01:48:30;;;;;;;;;;;;;;;;;;2111405;28;19977;-46
2022/01/09 01:49:32;;;;;;;;;;;;;;;;;;2098025;28;20456;-45
2022/01/09 01:50:36;;;;;;;;;;;;;;;;;;2097506;28;20069;-45
2022/01/09 01:51:37;;;;;;;;;;;;;;;;;;2104122;28;19926;-45
2022/01/09 01:52:41;;;;;;;;;;;;;;;;;;2114818;28;19919;-46
2022/01/09 01:53:42;;;;;;;;;;;;;;;;;;2114074;28;20067;-45
2022/01/09 01:54:44;;;;;;;;;;;;;;;;;;2109947;28;19943;-45
2022/01/09 01:55:51;;;;;;;;;;;;;;;;;;2108375;28;19926;-45
2022/01/09 01:56:52;;;;;;;;;;;;;;;;;;2109126;28;20011;-45
2022/01/09 01:57:53;;;;;;;;;;;;;;;;;;2101145;28;19924;-45
2022/01/09 01:58:54;;;;;;;;;;;;;;;;;;2099103;28;19920;-45
2022/01/09 01:59:55;;;;;;;;;;;;;;;;;;2103724;28;19920;-45
2022/01/09 02:00:56;;;;;;;;;;;;;;;;;;2099128;28;19921;-44
2022/01/09 02:01:58;;;;;;;;;;;;;;;;;;2098875;28;19927;-45
2022/01/09 02:02:59;;;;;;;;;;;;;;;;;;2106930;28;19927;-45
2022/01/09 02:04:00;;;;;;;;;;;;;;;;;;2099219;28;19928;-48
2022/01/09 02:05:00;;;;;;;;;;;;;;;;;;2098685;28;19927;-48
2022/01/09 02:06:01;;;;;;;;;;;;;;;;;;2106077;28;20358;-48
2022/01/09 02:07:02;;;;;;;;;;;;;;;;;;2098807;28;19931;-48
2022/01/09 02:08:03;;;;;;;;;;;;;;;;;;2099553;28;20411;-48
2022/01/09 02:09:04;;;;;;;;;;;;;;;;;;2112379;28;19927;-49
2022/01/09 02:10:07;;;;;;;;;;;;;;;;;;2115680;28;19972;-48
2022/01/09 02:11:08;;;;;;;;;;;;;;;;;;2109863;28;19939;-48
2022/01/09 02:12:09;;;;;;;;;;;;;;;;;;2115558;28;19940;-49
2022/01/09 02:13:10;;;;;;;;;;;;;;;;;;2115684;28;19926;-47
2022/01/09 02:14:11;;;;;;;;;;;;;;;;;;2107821;28;19928;-48
2022/01/09 02:15:12;;;;;;;;;;;;;;;;;;2107320;28;19924;-48
2022/01/09 02:16:17;;;;;;;;;;;;;;;;;;2107237;28;19924;-48
2022/01/09 02:17:18;;;;;;;;;;;;;;;;;;2109887;28;20458;-48
2022/01/09 02:18:19;;;;;;;;;;;;;;;;;;2115661;28;19927;-48
2022/01/09 02:19:20;;;;;;;;;;;;;;;;;;2111299;28;19919;-48
2022/01/09 02:20:20;;;;;;;;;;;;;;;;;;2112846;28;19920;-50
2022/01/09 02:21:23;;;;;;;;;;;;;;;;;;2115685;28;19926;-49
2022/01/09 02:22:24;;;;;;;;;;;;;;;;;;2108986;28;20019;-49
2022/01/09 02:23:25;;;;;;;;;;;;;;;;;;2099933;28;20395;-48
2022/01/09 02:24:26;;;;;;;;;;;;;;;;;;2098594;28;20050;-49
2022/01/09 02:25:27;;;;;;;;;;;;;;;;;;2104292;28;20335;-48
2022/01/09 02:26:28;;;;;;;;;;;;;;;;;;2115480;28;20358;-48
2022/01/09 02:27:29;;;;;;;;;;;;;;;;;;2115617;28;19920;-48
2022/01/09 02:28:30;;;;;;;;;;;;;;;;;;2103283;28;19920;-48
2022/01/09 02:29:30;;;;;;;;;;;;;;;;;;2098815;28;20324;-49
2022/01/09 02:30:32;;;;;;;;;;;;;;;;;;2098281;28;20006;-48
2022/01/09 02:31:33;;;;;;;;;;;;;;;;;;2106650;28;20377;-48
2022/01/09 02:32:34;;;;;;;;;;;;;;;;;;2107119;28;19920;-47
2022/01/09 02:33:35;;;;;;;;;;;;;;;;;;2105240;28;19921;-48
2022/01/09 02:34:36;;;;;;;;;;;;;;;;;;2101305;28;19920;-49
2022/01/09 02:35:36;;;;;;;;;;;;;;;;;;2098647;28;20395;-50
2022/01/09 02:36:37;;;;;;;;;;;;;;;;;;2101269;28;19920;-48
2022/01/09 02:37:38;;;;;;;;;;;;;;;;;;2106053;28;19920;-49
2022/01/09 02:38:39;;;;;;;;;;;;;;;;;;2107069;28;19948;-48
2022/01/09 02:39:39;;;;;;;;;;;;;;;;;;2108221;28;19928;-48
2022/01/09 02:40:40;;;;;;;;;;;;;;;;;;2107108;28;19920;-48
2022/01/09 02:41:41;;;;;;;;;;;;;;;;;;2107082;28;20390;-47
2022/01/09 02:42:42;;;;;;;;;;;;;;;;;;2106914;28;19919;-48
2022/01/09 02:43:43;;;;;;;;;;;;;;;;;;2115623;28;19930;-48
2022/01/09 02:44:44;;;;;;;;;;;;;;;;;;2113430;28;19925;-48
2022/01/09 02:45:49;;;;;;;;;;;;;;;;;;2105706;28;19920;-48
2022/01/09 02:46:59;;;;;;;;;;;;;;;;;;2098610;28;20374;-49
2022/01/09 02:48:02;;;;;;;;;;;;;;;;;;2102919;28;19972;-49
2022/01/09 02:49:03;;;;;;;;;;;;;;;;;;2106853;28;19959;-49
2022/01/09 02:50:11;;;;;;;;;;;;;;;;;;2107035;28;19920;-49
2022/01/09 02:51:14;;;;;;;;;;;;;;;;;;2105662;28;19970;-51
2022/01/09 02:52:28;;;;;;;;;;;;;;;;;;2107122;28;20027;-48
2022/01/09 02:53:33;;;;;;;;;;;;;;;;;;2106274;28;20002;-49
2022/01/09 02:55:53;;;;;;;;;;;;;;;;;;2107151;28;20393;-51
2022/01/09 02:56:54;;;;;;;;;;;;;;;;;;2105486;28;19927;-48
2022/01/09 02:57:55;;;;;;;;;;;;;;;;;;2107015;28;20422;-49
2022/01/09 02:58:56;;;;;;;;;;;;;;;;;;2104406;28;19921;-48
2022/01/09 02:59:56;;;;;;;;;;;;;;;;;;2113920;28;19923;-47
2022/01/09 03:00:57;;;;;;;;;;;;;;;;;;2115404;28;19919;-50
2022/01/09 03:01:58;;;;;;;;;;;;;;;;;;2108467;28;19924;-47
2022/01/09 03:02:59;;;;;;;;;;;;;;;;;;2115313;28;19919;-48
2022/01/09 03:04:00;;;;;;;;;;;;;;;;;;2115491;28;20002;-49
2022/01/09 03:05:01;;;;;;;;;;;;;;;;;;2105282;28;20254;-45
2022/01/09 03:06:02;;;;;;;;;;;;;;;;;;2106929;28;20369;-45
2022/01/09 03:07:03;;;;;;;;;;;;;;;;;;2106523;28;19998;-46
2022/01/09 03:08:04;;;;;;;;;;;;;;;;;;2105910;28;20388;-46
2022/01/09 03:09:06;;;;;;;;;;;;;;;;;;2106946;28;19924;-44
2022/01/09 03:10:07;;;;;;;;;;;;;;;;;;2105937;28;20015;-45
2022/01/09 03:11:08;;;;;;;;;;;;;;;;;;2113039;28;19927;-45
2022/01/09 03:12:11;;;;;;;;;;;;;;;;;;2115270;28;19919;-46
2022/01/09 03:13:12;;;;;;;;;;;;;;;;;;2109600;28;20002;-45
2022/01/09 03:14:12;;;;;;;;;;;;;;;;;;2106870;28;20010;-44
2022/01/09 03:15:13;;;;;;;;;;;;;;;;;;2106853;28;20289;-46
2022/01/09 03:16:14;;;;;;;;;;;;;;;;;;2103566;28;19920;-45
2022/01/09 03:17:15;;;;;;;;;;;;;;;;;;2098460;28;19925;-45
2022/01/09 03:18:20;;;;;;;;;;;;;;;;;;2098212;28;19921;-44
2022/01/09 03:19:21;;;;;;;;;;;;;;;;;;2106864;28;20016;-46
2022/01/09 03:20:22;;;;;;;;;;;;;;;;;;2115192;28;19924;-44
2022/01/09 03:21:23;;;;;;;;;;;;;;;;;;2112319;28;19930;-47
2022/01/09 03:22:24;;;;;;;;;;;;;;;;;;2112394;28;19920;-45
2022/01/09 03:23:25;;;;;;;;;;;;;;;;;;2115193;28;19920;-45
2022/01/09 03:24:25;;;;;;;;;;;;;;;;;;2109121;28;20281;-47
2022/01/09 03:25:26;;;;;;;;;;;;;;;;;;2100130;28;20400;-48
2022/01/09 03:26:27;;;;;;;;;;;;;;;;;;2098505;28;19920;-46
2022/01/09 03:27:28;;;;;;;;;;;;;;;;;;2103794;28;19927;-45
2022/01/09 03:28:29;;;;;;;;;;;;;;;;;;2098464;28;19924;-44
2022/01/09 03:29:29;;;;;;;;;;;;;;;;;;2098396;28;19926;-44
2022/01/09 03:30:30;;;;;;;;;;;;;;;;;;2104823;28;19928;-45
2022/01/09 03:31:31;;;;;;;;;;;;;;;;;;2115332;28;19919;-45
2022/01/09 03:32:32;;;;;;;;;;;;;;;;;;2114299;28;20442;-45
2022/01/09 03:33:32;;;;;;;;;;;;;;;;;;2105990;28;19973;-45
2022/01/09 03:34:33;;;;;;;;;;;;;;;;;;2106790;28;19927;-45
2022/01/09 03:35:34;;;;;;;;;;;;;;;;;;2105864;28;19931;-45
2022/01/09 03:36:35;;;;;;;;;;;;;;;;;;2101267;28;19920;-46
2022/01/09 03:37:36;;;;;;;;;;;;;;;;;;2098481;28;19976;-45
2022/01/09 03:38:37;;;;;;;;;;;;;;;;;;2100278;28;20273;-44
2022/01/09 03:39:38;;;;;;;;;;;;;;;;;;2099875;28;20285;-44
2022/01/09 03:40:39;;;;;;;;;;;;;;;;;;2104876;28;19943;-44
2022/01/09 03:41:39;;;;;;;;;;;;;;;;;;2104155;28;19973;-45
2022/01/09 03:42:40;;;;;;;;;;;;;;;;;;2098388;28;19920;-45
2022/01/09 03:43:41;;;;;;;;;;;;;;;;;;2098356;28;19920;-44
2022/01/09 03:44:42;;;;;;;;;;;;;;;;;;2101742;28;19978;-45
2022/01/09 03:45:43;;;;;;;;;;;;;;;;;;2098287;28;20311;-45
2022/01/09 03:46:44;;;;;;;;;;;;;;;;;;2099019;28;19936;-46
2022/01/09 03:47:45;;;;;;;;;;;;;;;;;;2105110;28;20304;-44
2022/01/09 03:48:45;;;;;;;;;;;;;;;;;;2106662;28;19920;-44
2022/01/09 03:49:46;;;;;;;;;;;;;;;;;;2104469;28;19920;-44
2022/01/09 03:50:51;;;;;;;;;;;;;;;;;;2111671;28;20369;-44
2022/01/09 03:51:54;;;;;;;;;;;;;;;;;;2115124;28;20053;-44
2022/01/09 03:52:55;;;;;;;;;;;;;;;;;;2109225;28;20405;-45
2022/01/09 03:53:55;;;;;;;;;;;;;;;;;;2114809;28;19959;-44
2022/01/09 03:54:56;;;;;;;;;;;;;;;;;;2115078;28;19926;-45
2022/01/09 03:55:57;;;;;;;;;;;;;;;;;;2106941;28;19928;-45
2022/01/09 03:56:58;;;;;;;;;;;;;;;;;;2106352;28;19919;-44
2022/01/09 03:57:58;;;;;;;;;;;;;;;;;;2106221;28;20369;-46
2022/01/09 03:58:59;;;;;;;;;;;;;;;;;;2108642;28;19927;-44
2022/01/09 04:00:00;;;;;;;;;;;;;;;;;;2115126;28;19920;-44
2022/01/09 04:01:01;;;;;;;;;;;;;;;;;;2111461;28;19988;-45
2022/01/09 04:02:02;;;;;;;;;;;;;;;;;;2104371;28;19920;-45
2022/01/09 04:03:03;;;;;;;;;;;;;;;;;;2098230;28;20369;-45
2022/01/09 04:04:04;;;;;;;;;;;;;;;;;;2100904;28;20377;-45
2022/01/09 04:05:05;;;;;;;;;;;;;;;;;;2100229;28;19924;-44
2022/01/09 04:06:06;;;;;;;;;;;;;;;;;;2098208;28;20329;-45
2022/01/09 04:07:07;;;;;;;;;;;;;;;;;;2101480;28;19920;-45
2022/01/09 04:08:07;;;;;;;;;;;;;;;;;;2098357;28;20403;-45
2022/01/09 04:09:19;;;;;;;;;;;;;;;;;;2098395;28;20040;-44
2022/01/09 04:10:22;;;;;;;;;;;;;;;;;;2104732;28;20472;-44
2022/01/09 04:11:26;;;;;;;;;;;;;;;;;;2106489;28;19924;-45
2022/01/09 04:12:35;;;;;;;;;;;;;;;;;;2106702;28;20455;-45
2022/01/09 04:13:36;;;;;;;;;;;;;;;;;;2105634;28;20060;-44
2022/01/09 04:14:37;;;;;;;;;;;;;;;;;;2106590;28;19924;-44
2022/01/09 04:15:38;;;;;;;;;;;;;;;;;;2105493;28;19946;-44
2022/01/09 04:16:39;;;;;;;;;;;;;;;;;;2105409;28;20002;-45
2022/01/09 04:17:48;;;;;;;;;;;;;;;;;;2106435;28;20369;-44
2022/01/09 04:18:49;;;;;;;;;;;;;;;;;;2107399;28;19919;-45
2022/01/09 04:19:51;;;;;;;;;;;;;;;;;;2114881;28;20435;-45
2022/01/09 04:20:51;;;;;;;;;;;;;;;;;;2111504;28;19919;-45
2022/01/09 04:21:52;;;;;;;;;;;;;;;;;;2102483;28;20254;-45
2022/01/09 04:22:53;;;;;;;;;;;;;;;;;;2098092;28;20500;-44
2022/01/09 04:23:54;;;;;;;;;;;;;;;;;;2098353;28;19920;-45
2022/01/09 04:24:55;;;;;;;;;;;;;;;;;;2106182;28;19997;-44
2022/01/09 04:25:56;;;;;;;;;;;;;;;;;;2106525;28;19920;-44
2022/01/09 04:26:56;;;;;;;;;;;;;;;;;;2105388;28;20380;-44
2022/01/09 04:27:57;;;;;;;;;;;;;;;;;;2098269;28;20267;-45
2022/01/09 04:28:58;;;;;;;;;;;;;;;;;;2097981;28;19920;-44
2022/01/09 04:29:59;;;;;;;;;;;;;;;;;;2102943;28;19920;-45
2022/01/09 04:31:00;;;;;;;;;;;;;;;;;;2106327;28;19920;-44
2022/01/09 04:32:00;;;;;;;;;;;;;;;;;;2105634;28;19927;-45
2022/01/09 04:33:01;;;;;;;;;;;;;;;;;;2103951;28;19950;-44
2022/01/09 04:34:02;;;;;;;;;;;;;;;;;;2098127;28;19927;-44
2022/01/09 04:35:03;;;;;;;;;;;;;;;;;;2100026;28;19924;-44
2022/01/09 04:36:04;;;;;;;;;;;;;;;;;;2103573;28;19924;-44
2022/01/09 04:37:05;;;;;;;;;;;;;;;;;;2098029;28;20289;-45
2022/01/09 04:38:05;;;;;;;;;;;;;;;;;;2101853;28;19920;-45
2022/01/09 04:39:06;;;;;;;;;;;;;;;;;;2105458;28;19927;-46
2022/01/09 04:40:08;;;;;;;;;;;;;;;;;;2106072;28;19920;-44
2022/01/09 04:41:09;;;;;;;;;;;;;;;;;;2103791;28;20429;-45
2022/01/09 04:42:10;;;;;;;;;;;;;;;;;;2097912;28;19920;-45
2022/01/09 04:43:12;;;;;;;;;;;;;;;;;;2098020;28;20594;-44
2022/01/09 04:44:13;;;;;;;;;;;;;;;;;;2106916;28;19919;-45
2022/01/09 04:45:16;;;;;;;;;;;;;;;;;;2114831;28;19920;-45
2022/01/09 04:46:23;;;;;;;;;;;;;;;;;;2112136;28;19957;-51
2022/01/09 04:47:24;;;;;;;;;;;;;;;;;;2110474;28;20010;-47
2022/01/09 04:48:25;;;;;;;;;;;;;;;;;;2114698;28;19920;-48
2022/01/09 04:49:32;;;;;;;;;;;;;;;;;;2108907;28;19927;-47
2022/01/09 04:50:35;;;;;;;;;;;;;;;;;;2105268;28;20012;-47
2022/01/09 04:51:36;;;;;;;;;;;;;;;;;;2106266;28;19951;-47
2022/01/09 04:52:39;;;;;;;;;;;;;;;;;;2105086;28;20423;-48
2022/01/09 04:53:40;;;;;;;;;;;;;;;;;;2106218;28;20045;-48
2022/01/09 04:54:40;;;;;;;;;;;;;;;;;;2105500;28;19957;-48
2022/01/09 04:55:42;;;;;;;;;;;;;;;;;;2100702;28;19921;-47
2022/01/09 04:56:42;;;;;;;;;;;;;;;;;;2097816;28;20440;-48
2022/01/09 04:57:43;;;;;;;;;;;;;;;;;;2103672;28;19977;-49
2022/01/09 04:58:44;;;;;;;;;;;;;;;;;;2099140;28;19924;-48
2022/01/09 04:59:45;;;;;;;;;;;;;;;;;;2097839;28;19920;-48
2022/01/09 05:00:45;;;;;;;;;;;;;;;;;;2105785;28;19920;-48
2022/01/09 05:01:46;;;;;;;;;;;;;;;;;;2097767;28;19927;-50
2022/01/09 05:02:47;;;;;;;;;;;;;;;;;;2097844;28;19924;-48
2022/01/09 05:03:48;;;;;;;;;;;;;;;;;;2104619;28;19924;-47
2022/01/09 05:04:49;;;;;;;;;;;;;;;;;;2106225;28;19927;-48
2022/01/09 05:05:50;;;;;;;;;;;;;;;;;;2104786;28;20392;-47
2022/01/09 05:06:51;;;;;;;;;;;;;;;;;;2100568;28;19928;-51
2022/01/09 05:07:51;;;;;;;;;;;;;;;;;;2097972;28;19927;-51
2022/01/09 05:08:52;;;;;;;;;;;;;;;;;;2101797;28;19927;-47
2022/01/09 05:09:53;;;;;;;;;;;;;;;;;;2106336;28;19931;-47
2022/01/09 05:10:54;;;;;;;;;;;;;;;;;;2105769;28;19920;-49
2022/01/09 05:11:55;;;;;;;;;;;;;;;;;;2105387;28;19965;-49
2022/01/09 05:12:56;;;;;;;;;;;;;;;;;;2106109;28;19920;-47
2022/01/09 05:13:56;;;;;;;;;;;;;;;;;;2104115;28;19927;-48
2022/01/09 05:14:57;;;;;;;;;;;;;;;;;;2104724;28;20381;-48
2022/01/09 05:16:00;;;;;;;;;;;;;;;;;;2106087;28;19920;-50
2022/01/09 05:17:01;;;;;;;;;;;;;;;;;;2103889;28;20018;-49
2022/01/09 05:18:04;;;;;;;;;;;;;;;;;;2098958;28;20215;-47
2022/01/09 05:19:08;;;;;;;;;;;;;;;;;;2097935;28;20402;-47
2022/01/09 05:20:08;;;;;;;;;;;;;;;;;;2103170;28;20008;-48
2022/01/09 05:21:09;;;;;;;;;;;;;;;;;;2114602;28;20277;-48
2022/01/09 05:22:11;;;;;;;;;;;;;;;;;;2114182;28;19926;-50
2022/01/09 05:23:12;;;;;;;;;;;;;;;;;;2108225;28;20432;-49
2022/01/09 05:24:13;;;;;;;;;;;;;;;;;;2114494;28;19923;-48
2022/01/09 05:25:14;;;;;;;;;;;;;;;;;;2110476;28;19920;-48
2022/01/09 05:26:14;;;;;;;;;;;;;;;;;;2110270;28;19981;-48
2022/01/09 05:27:15;;;;;;;;;;;;;;;;;;2114512;28;19919;-48
2022/01/09 05:28:16;;;;;;;;;;;;;;;;;;2109662;28;19927;-47
2022/01/09 05:29:17;;;;;;;;;;;;;;;;;;2101092;28;19927;-47
2022/01/09 05:30:18;;;;;;;;;;;;;;;;;;2099306;28;19920;-51
2022/01/09 05:31:19;;;;;;;;;;;;;;;;;;2103498;28;20319;-51
2022/01/09 05:32:19;;;;;;;;;;;;;;;;;;2107516;28;19920;-47
2022/01/09 05:33:20;;;;;;;;;;;;;;;;;;2107475;28;19972;-48
2022/01/09 05:34:21;;;;;;;;;;;;;;;;;;2106435;28;20298;-48
2022/01/09 05:35:22;;;;;;;;;;;;;;;;;;2107698;28;19920;-50
2022/01/09 05:36:23;;;;;;;;;;;;;;;;;;2107127;28;20006;-48
2022/01/09 05:37:24;;;;;;;;;;;;;;;;;;2106890;28;19930;-48
2022/01/09 05:38:25;;;;;;;;;;;;;;;;;;2107483;28;19965;-47
2022/01/09 05:39:26;;;;;;;;;;;;;;;;;;2107660;28;19920;-48
2022/01/09 05:40:26;;;;;;;;;;;;;;;;;;2106913;28;19943;-50
2022/01/09 05:41:27;;;;;;;;;;;;;;;;;;2107441;28;19943;-49
2022/01/09 05:42:28;;;;;;;;;;;;;;;;;;2105088;28;19978;-49
2022/01/09 05:43:30;;;;;;;;;;;;;;;;;;2100754;28;19927;-49
2022/01/09 05:44:31;;;;;;;;;;;;;;;;;;2099176;28;19920;-50
2022/01/09 05:45:32;;;;;;;;;;;;;;;;;;2102856;28;19998;-48
2022/01/09 05:46:33;;;;;;;;;;;;;;;;;;2107508;28;19930;-48
2022/01/09 05:47:34;;;;;;;;;;;;;;;;;;2107825;28;20193;-48
2022/01/09 05:48:35;;;;;;;;;;;;;;;;;;2106445;28;19920;-47
2022/01/09 05:49:36;;;;;;;;;;;;;;;;;;2099066;28;19969;-52
2022/01/09 05:50:36;;;;;;;;;;;;;;;;;;2099524;28;19927;-47
2022/01/09 05:51:37;;;;;;;;;;;;;;;;;;2106574;28;19927;-47
2022/01/09 05:52:38;;;;;;;;;;;;;;;;;;2107431;28;19927;-48
2022/01/09 05:53:39;;;;;;;;;;;;;;;;;;2107885;28;20369;-49
2022/01/09 05:54:39;;;;;;;;;;;;;;;;;;2109179;28;19920;-48
2022/01/09 05:55:41;;;;;;;;;;;;;;;;;;2107588;28;19920;-48
2022/01/09 05:56:42;;;;;;;;;;;;;;;;;;2109419;28;19942;-48
2022/01/09 05:57:43;;;;;;;;;;;;;;;;;;2100238;28;19920;-47
2022/01/09 05:58:43;;;;;;;;;;;;;;;;;;2099006;28;19928;-50
2022/01/09 05:59:44;;;;;;;;;;;;;;;;;;2105563;28;19975;-47
2022/01/09 06:00:45;;;;;;;;;;;;;;;;;;2115874;28;19926;-48
2022/01/09 06:01:46;;;;;;;;;;;;;;;;;;2115720;28;19920;-51
2022/01/09 06:02:47;;;;;;;;;;;;;;;;;;2103137;28;19920;-51
2022/01/09 06:03:48;;;;;;;;;;;;;;;;;;2099137;28;20366;-47
2022/01/09 06:04:49;;;;;;;;;;;;;;;;;;2100036;28;19920;-47
2022/01/09 06:05:51;;;;;;;;;;;;;;;;;;2107849;28;19977;-48
2022/01/09 06:06:51;;;;;;;;;;;;;;;;;;2107188;28;20018;-49
2022/01/09 06:07:52;;;;;;;;;;;;;;;;;;2107585;28;19920;-51
2022/01/09 06:08:53;;;;;;;;;;;;;;;;;;2106006;28;20471;-48
2022/01/09 06:09:54;;;;;;;;;;;;;;;;;;2107240;28;20281;-48
2022/01/09 06:10:54;;;;;;;;;;;;;;;;;;2104874;28;19920;-47
2022/01/09 06:11:56;;;;;;;;;;;;;;;;;;2099771;28;20041;-45
2022/01/09 06:12:57;;;;;;;;;;;;;;;;;;2099043;28;20010;-44
2022/01/09 06:13:58;;;;;;;;;;;;;;;;;;2104382;28;19920;-45
2022/01/09 06:14:59;;;;;;;;;;;;;;;;;;2107383;28;19920;-45
2022/01/09 06:15:59;;;;;;;;;;;;;;;;;;2107372;28;19948;-45
2022/01/09 06:17:00;;;;;;;;;;;;;;;;;;2108968;28;20292;-49
2022/01/09 06:18:01;;;;;;;;;;;;;;;;;;2115658;28;19926;-46
2022/01/09 06:19:02;;;;;;;;;;;;;;;;;;2113734;28;19927;-45
2022/01/09 06:20:03;;;;;;;;;;;;;;;;;;2105500;28;19920;-45
2022/01/09 06:21:04;;;;;;;;;;;;;;;;;;2098815;28;19924;-48
2022/01/09 06:22:04;;;;;;;;;;;;;;;;;;2100106;28;19920;-45
2022/01/09 06:23:05;;;;;;;;;;;;;;;;;;2112867;28;19923;-45
2022/01/09 06:24:06;;;;;;;;;;;;;;;;;;2115541;28;20022;-46
2022/01/09 06:25:07;;;;;;;;;;;;;;;;;;2107875;28;19927;-47
2022/01/09 06:26:08;;;;;;;;;;;;;;;;;;2099346;28;19920;-45
2022/01/09 06:27:09;;;;;;;;;;;;;;;;;;2099109;28;20362;-49
2022/01/09 06:28:10;;;;;;;;;;;;;;;;;;2105559;28;19936;-47
2022/01/09 06:29:12;;;;;;;;;;;;;;;;;;2115613;28;19923;-48
2022/01/09 06:30:13;;;;;;;;;;;;;;;;;;2114731;28;20002;-50
2022/01/09 06:31:14;;;;;;;;;;;;;;;;;;2106202;28;19924;-47
2022/01/09 06:32:14;;;;;;;;;;;;;;;;;;2107178;28;19924;-48
2022/01/09 06:33:15;;;;;;;;;;;;;;;;;;2106479;28;19920;-49
2022/01/09 06:34:16;;;;;;;;;;;;;;;;;;2101912;28;19920;-48
2022/01/09 06:35:17;;;;;;;;;;;;;;;;;;2098888;28;19920;-51
2022/01/09 06:36:18;;;;;;;;;;;;;;;;;;2102518;28;19920;-47
2022/01/09 06:37:18;;;;;;;;;;;;;;;;;;2100472;28;19921;-48
2022/01/09 06:38:19;;;;;;;;;;;;;;;;;;2098741;28;20270;-47
2022/01/09 06:39:20;;;;;;;;;;;;;;;;;;2101051;28;19920;-48
2022/01/09 06:40:21;;;;;;;;;;;;;;;;;;2102641;28;19927;-48
2022/01/09 06:41:22;;;;;;;;;;;;;;;;;;2107062;28;19926;-48
2022/01/09 06:42:23;;;;;;;;;;;;;;;;;;2106024;28;19927;-47
2022/01/09 06:43:23;;;;;;;;;;;;;;;;;;2107034;28;19920;-48
2022/01/09 06:44:24;;;;;;;;;;;;;;;;;;2106017;28;19920;-52
2022/01/09 06:45:26;;;;;;;;;;;;;;;;;;2106689;28;19924;-48
2022/01/09 06:46:27;;;;;;;;;;;;;;;;;;2106970;28;20338;-49
2022/01/09 06:47:28;;;;;;;;;;;;;;;;;;2106489;28;19920;-48
2022/01/09 06:48:29;;;;;;;;;;;;;;;;;;2104482;28;19924;-48
2022/01/09 06:49:29;;;;;;;;;;;;;;;;;;2107073;28;19920;-48
2022/01/09 06:50:30;;;;;;;;;;;;;;;;;;2105927;28;19928;-47
2022/01/09 06:51:31;;;;;;;;;;;;;;;;;;2099883;28;19921;-48
2022/01/09 06:52:32;;;;;;;;;;;;;;;;;;2098643;28;19966;-47
2022/01/09 06:53:33;;;;;;;;;;;;;;;;;;2103266;28;20289;-48
2022/01/09 06:54:34;;;;;;;;;;;;;;;;;;2098655;28;19924;-49
2022/01/09 06:55:35;;;;;;;;;;;;;;;;;;2098759;28;19926;-48
2022/01/09 06:56:35;;;;;;;;;;;;;;;;;;2102002;28;19927;-48
2022/01/09 06:57:36;;;;;;;;;;;;;;;;;;2098705;28;19954;-47
2022/01/09 06:58:37;;;;;;;;;;;;;;;;;;2098364;28;20419;-48
2022/01/09 06:59:38;;;;;;;;;;;;;;;;;;2102263;28;19920;-48